Overview Statistics Trail Chart Weather Telemetry Raw packets
 

This is the latest recevied weather packets stored in our database for station/object WW6Q. If no packets are shown the sender has not sent any weather packets the latest 10 day(s).

<< 13 14 15 16 17 18 19 >>
Time Temp. Humidity Pressure Rain* Wind** Luminosity Snow
1788535489 23.33° C 86% 1017.9 hPa 0 mm - 86 W/m² -
1788535220 23.33° C 85% 1018 hPa 0 mm - 29 W/m² -
1788534885 23.89° C 85% 1017.8 hPa 0 mm - 42 W/m² -
1788534585 24.44° C 84% 1017.6 hPa 0 mm - 103 W/m² -
1788534280 25° C 82% 1017.2 hPa 0 mm - 128 W/m² -
1788533977 25° C 83% 1016.9 hPa 0 mm - 247 W/m² -
1788533674 25° C 83% 1016.8 hPa 0 mm - 216 W/m² -
1788533369 25° C 83% 1016.5 hPa 0 mm - 190 W/m² -
1788533065 25° C 84% 1016.1 hPa 0 mm - 290 W/m² -
1788532760 24.44° C 85% 1016 hPa 0 mm - 243 W/m² -
1788532457 24.44° C 84% 1015.9 hPa 0 mm - 237 W/m² -
1788532175 24.44° C 86% 1015.8 hPa 0 mm - 202 W/m² -
1788531849 24.44° C 85% 1015.7 hPa 0 mm - 187 W/m² -
1788531543 24.44° C 85% 1015.6 hPa 0 mm - 172 W/m² -
1788531239 23.89° C 86% 1015.6 hPa 0 mm - 157 W/m² -
1788530935 23.89° C 86% 1015.4 hPa 0 mm - 147 W/m² -
1788530645 23.89° C 86% 1015.4 hPa 0 mm - 123 W/m² -
1788530334 23.89° C 86% 1015.7 hPa 0 mm - 133 W/m² -
1788530029 23.89° C 87% 1015.7 hPa 0 mm - 157 W/m² -
1788529725 23.89° C 86% 1015.2 hPa 0 mm - 216 W/m² -
1788529425 23.33° C 87% 1015 hPa 0 mm - 261 W/m² -
1788529125 23.33° C 88% 1015.1 hPa 0 mm - 187 W/m² -
1788528821 23.33° C 89% 1015.2 hPa 0 mm - 158 W/m² -
1788528520 22.78° C 91% 1015.1 hPa 0 mm - 143 W/m² -
1788528216 22.78° C 91% 1015.1 hPa 0 mm - 123 W/m² -

* Rain latest hour (hover to see other rain measurements)
** Current wind speed in m/s (hover to see current wind gust speed)